This is the latest recevied weather packets stored in our database for station/object K2ATL. If no packets are shown the sender has not sent any weather packets the latest 10 day(s).
| Time | Temp. | Humidity | Pressure | Rain* | Wind** | Luminosity | Snow |
|---|---|---|---|---|---|---|---|
| 1777998512 | 20.56° C | 41% | 1100.9 hPa | 0 mm | - | 912 W/m² | - |
| 1777998208 | 20.56° C | 42% | 1101.1 hPa | 0 mm | - | 912 W/m² | - |
| 1777997905 | 20.56° C | 43% | 1101.2 hPa | 0 mm | - | 929 W/m² | - |
| 1777997602 | 20.56° C | 42% | 1101.5 hPa | 0 mm | - | 871 W/m² | - |
| 1777997299 | 20.56° C | 42% | 1101.4 hPa | 0 mm | - | 901 W/m² | - |
| 1777996998 | 20° C | 44% | 1101.7 hPa | 0 mm | - | 885 W/m² | - |
| 1777996694 | 20.56° C | 43% | 1101.6 hPa | 0 mm | - | 873 W/m² | - |
| 1777996389 | 20.56° C | 43% | 1101.5 hPa | 0 mm | - | 864 W/m² | - |
| 1777996086 | 20.56° C | 41% | 1101.7 hPa | 0 mm | - | 858 W/m² | - |
| 1777995783 | 20.56° C | 44% | 1101.6 hPa | 0 mm | - | 843 W/m² | - |
| 1777995479 | 20° C | 47% | 1101.4 hPa | 0 mm | - | 826 W/m² | - |
| 1777995176 | 20° C | 47% | 1101.5 hPa | 0 mm | - | 835 W/m² | - |
| 1777994873 | 20° C | 46% | 1101.5 hPa | 0 mm | - | 825 W/m² | - |
| 1777994569 | 18.33° C | 53% | 1101.5 hPa | 0 mm | - | 784 W/m² | - |
| 1777994264 | 19.44° C | 52% | 1101.4 hPa | 0 mm | - | 392 W/m² | - |
| 1777993961 | 18.89° C | 53% | 1101.6 hPa | 0 mm | - | 744 W/m² | - |
| 1777993659 | 19.44° C | 54% | 1101.7 hPa | 0 mm | - | 772 W/m² | - |
| 1777993356 | 18.33° C | 54% | 1101.5 hPa | 0 mm | - | 726 W/m² | - |
| 1777993056 | 17.78° C | 57% | 1101.8 hPa | 0 mm | - | 746 W/m² | - |
| 1777992754 | 17.78° C | 57% | 1101.7 hPa | 0 mm | - | 726 W/m² | - |
| 1777992451 | 18.89° C | 55% | 1101.7 hPa | 0 mm | - | 705 W/m² | - |
| 1777992150 | 17.78° C | 57% | 1101.7 hPa | 0 mm | - | 685 W/m² | - |
| 1777991846 | 17.78° C | 57% | 1101.6 hPa | 0 mm | - | 674 W/m² | - |
| 1777991544 | 17.78° C | 56% | 1101.4 hPa | 0 mm | - | 639 W/m² | - |
| 1777991241 | 16.67° C | 58% | 1101.4 hPa | 0 mm | - | 622 W/m² | - |
* Rain latest hour (hover to see other rain measurements)
** Current wind speed in m/s (hover to see current wind gust speed)